Time;durP1;ratioP1;P1;durP2;ratioP2;P2;SDS_P1;SDS_P2;PMS_P1;PMS_P2;Temp;Humidity;BMP_temperature;BMP_pressure;BME280_temperature;BME280_humidity;BME280_pressure;Samples;Min_cycle;Max_cycle;Signal;HPM_P1;HPM_P2
2021/04/28 00:02:06;;;;;;;0.00;0.00;;;14.10;51.70;;;;;;4157287;28;20595;-44
2021/04/28 00:04:27;;;;;;;0.00;0.00;;;14.10;51.90;;;;;;4157113;28;20107;-47
2021/04/28 00:06:49;;;;;;;0.10;0.10;;;14.10;51.90;;;;;;4157679;28;20069;-44
2021/04/28 00:09:13;;;;;;;0.00;0.00;;;14.10;51.70;;;;;;4142102;28;20058;-44
2021/04/28 00:11:35;;;;;;;0.00;0.00;;;14.10;51.90;;;;;;4157628;28;20393;-47
2021/04/28 00:13:55;;;;;;;0.05;0.05;;;14.00;51.90;;;;;;4156935;28;20492;-45
2021/04/28 00:16:19;;;;;;;0.00;0.00;;;14.00;51.80;;;;;;4156089;28;20141;-45
2021/04/28 00:18:40;;;;;;;0.00;0.00;;;14.00;51.90;;;;;;4133908;28;20073;-45
2021/04/28 00:21:02;;;;;;;0.00;0.00;;;14.00;51.80;;;;;;4141605;28;20133;-44
2021/04/28 00:23:24;;;;;;;1.17;1.08;;;14.00;51.90;;;;;;4157794;28;20518;-44
2021/04/28 00:25:46;;;;;;;0.00;0.00;;;14.00;52.70;;;;;;4157654;28;20057;-45
2021/04/28 00:28:07;;;;;;;0.43;0.43;;;14.00;52.00;;;;;;4141200;28;20049;-47
2021/04/28 00:30:28;;;;;;;;;;;14.00;52.10;;;;;;4158315;28;20065;-47
2021/04/28 00:32:50;;;;;;;0.00;0.00;;;14.00;52.40;;;;;;4157620;28;19924;-49
2021/04/28 00:35:13;;;;;;;0.00;0.00;;;14.00;52.60;;;;;;4157051;28;20061;-44
2021/04/28 00:37:34;;;;;;;0.13;0.13;;;14.00;52.40;;;;;;4157417;28;20052;-44
2021/04/28 00:39:56;;;;;;;1.05;0.50;;;14.00;52.30;;;;;;4157575;28;20111;-46
2021/04/28 00:42:17;;;;;;;0.00;0.00;;;13.90;52.30;;;;;;4157491;28;20057;-44
2021/04/28 00:44:38;;;;;;;0.10;0.10;;;13.90;52.40;;;;;;4157738;28;20045;-44
2021/04/28 00:46:59;;;;;;;0.00;0.00;;;13.90;52.40;;;;;;4157374;28;20108;-44
2021/04/28 00:49:22;;;;;;;0.00;0.00;;;13.90;52.40;;;;;;4155620;28;20057;-45
2021/04/28 00:51:43;;;;;;;0.17;0.17;;;13.90;52.50;;;;;;4141969;28;20056;-45
2021/04/28 00:54:05;;;;;;;0.00;0.00;;;13.90;52.60;;;;;;4157424;28;20049;-46
2021/04/28 00:56:27;;;;;;;0.00;0.00;;;13.90;52.60;;;;;;4160038;28;20145;-47
2021/04/28 00:58:47;;;;;;;0.00;0.00;;;13.90;52.60;;;;;;4159873;28;20057;-45
2021/04/28 01:01:08;;;;;;;0.00;0.00;;;13.90;52.60;;;;;;4159674;28;20412;-44
2021/04/28 01:03:30;;;;;;;0.00;0.00;;;13.90;52.60;;;;;;4147782;28;20057;-45
2021/04/28 01:05:53;;;;;;;0.00;0.00;;;13.90;52.70;;;;;;4144985;28;20516;-44
2021/04/28 01:08:17;;;;;;;0.20;0.15;;;13.80;52.70;;;;;;4160134;28;20503;-44
2021/04/28 01:10:38;;;;;;;0.00;0.00;;;13.80;52.70;;;;;;4144910;28;20496;-44
2021/04/28 01:13:04;;;;;;;0.13;0.13;;;13.80;52.80;;;;;;4159814;28;20048;-45
2021/04/28 01:15:27;;;;;;;0.00;0.00;;;13.80;52.80;;;;;;4144744;28;20127;-44
2021/04/28 01:17:53;;;;;;;0.00;0.00;;;13.80;52.90;;;;;;4159366;28;20508;-44
2021/04/28 01:20:17;;;;;;;0.47;0.47;;;13.80;53.00;;;;;;4159703;28;20059;-44
2021/04/28 01:22:40;;;;;;;0.00;0.00;;;13.80;53.00;;;;;;4144871;28;20053;-44
2021/04/28 01:25:02;;;;;;;0.00;0.00;;;13.80;53.10;;;;;;4128042;28;20058;-47
2021/04/28 01:27:26;;;;;;;0.10;0.10;;;13.80;53.10;;;;;;4155070;28;20045;-44
2021/04/28 01:29:47;;;;;;;0.00;0.00;;;13.80;53.20;;;;;;4159789;28;20141;-44
2021/04/28 01:32:14;;;;;;;0.57;0.57;;;13.80;53.30;;;;;;4158546;28;20142;-44
2021/04/28 01:34:38;;;;;;;0.00;0.00;;;13.80;53.60;;;;;;4160016;28;20424;-45
2021/04/28 01:37:02;;;;;;;0.00;0.00;;;13.80;53.40;;;;;;4159919;28;20097;-45
2021/04/28 01:39:26;;;;;;;0.00;0.00;;;13.80;53.30;;;;;;4140380;28;20038;-52
2021/04/28 01:41:50;;;;;;;0.00;0.00;;;13.70;53.50;;;;;;4159506;28;20485;-46
2021/04/28 01:44:17;;;;;;;0.00;0.00;;;13.80;53.50;;;;;;4153158;28;20057;-49
2021/04/28 01:46:39;;;;;;;0.00;0.00;;;13.80;53.40;;;;;;4159108;28;20055;-44
2021/04/28 01:49:02;;;;;;;0.40;0.40;;;13.70;54.10;;;;;;4159037;28;20051;-44
2021/04/28 01:51:24;;;;;;;0.32;0.32;;;13.70;53.50;;;;;;4159231;28;20076;-45
2021/04/28 01:53:46;;;;;;;0.00;0.00;;;13.70;53.40;;;;;;4155219;28;20077;-44
2021/04/28 01:56:08;;;;;;;0.00;0.00;;;13.70;53.60;;;;;;4159727;28;20057;-45
2021/04/28 01:59:02;;;;;;;0.00;0.00;;;13.70;53.50;;;;;;4132986;28;20167;-45
2021/04/28 02:01:45;;;;;;;9.85;1.95;;;13.70;54.30;;;;;;4157695;28;20419;-44
2021/04/28 02:04:07;;;;;;;0.00;0.00;;;13.60;53.60;;;;;;4157875;28;20401;-44
2021/04/28 02:06:29;;;;;;;0.00;0.00;;;13.70;53.60;;;;;;4142419;28;20050;-44
2021/04/28 02:08:51;;;;;;;0.00;0.00;;;13.60;53.60;;;;;;4140048;28;20044;-42
2021/04/28 02:11:15;;;;;;;0.00;0.00;;;13.60;53.60;;;;;;4143080;28;20041;-41
2021/04/28 02:13:39;;;;;;;0.00;0.00;;;13.60;53.60;;;;;;4156413;28;20132;-42
2021/04/28 02:16:14;;;;;;;0.00;0.00;;;13.60;53.70;;;;;;4157611;28;20163;-42
2021/04/28 02:18:38;;;;;;;0.00;0.00;;;13.60;53.70;;;;;;4157796;28;20045;-42
2021/04/28 02:21:03;;;;;;;0.00;0.00;;;13.60;53.70;;;;;;4124121;28;20046;-42
2021/04/28 02:24:06;;;;;;;0.00;0.00;;;13.60;53.80;;;;;;4125994;28;20046;-42
2021/04/28 02:26:29;;;;;;;0.00;0.00;;;13.60;53.80;;;;;;4129948;28;20606;-42
2021/04/28 02:28:50;;;;;;;0.00;0.00;;;13.50;53.70;;;;;;4159208;28;20042;-42
2021/04/28 02:31:13;;;;;;;0.32;0.32;;;13.50;53.80;;;;;;4158883;28;20050;-43
2021/04/28 02:33:38;;;;;;;0.00;0.00;;;13.50;53.80;;;;;;4157654;28;20056;-41
2021/04/28 02:36:32;;;;;;;0.00;0.00;;;13.50;53.90;;;;;;4096532;28;20062;-41
2021/04/28 02:39:11;;;;;;;0.00;0.00;;;13.50;54.00;;;;;;4148964;28;20049;-45
2021/04/28 02:41:33;;;;;;;0.08;0.08;;;13.50;54.00;;;;;;4142294;28;20447;-41
2021/04/28 02:43:56;;;;;;;0.00;0.00;;;13.50;54.00;;;;;;4158917;28;20518;-46
2021/04/28 02:46:23;;;;;;;0.00;0.00;;;13.50;54.00;;;;;;4139794;28;22972;-48
2021/04/28 02:48:49;;;;;;;0.00;0.00;;;13.50;54.10;;;;;;4143292;28;20088;-49
2021/04/28 02:51:47;;;;;;;0.00;0.00;;;13.50;54.80;;;;;;4158229;28;20053;-45
2021/04/28 02:54:31;;;;;;;0.00;0.00;;;13.40;54.10;;;;;;4157567;28;20496;-42
2021/04/28 02:56:54;;;;;;;0.05;0.05;;;13.40;54.10;;;;;;4143045;28;20057;-42
2021/04/28 02:59:18;;;;;;;0.00;0.00;;;13.40;54.10;;;;;;4143235;28;20502;-41
2021/04/28 03:01:40;;;;;;;0.00;0.00;;;13.40;54.20;;;;;;4157618;28;20045;-43
2021/04/28 03:04:02;;;;;;;0.70;0.55;;;13.40;54.30;;;;;;4143271;28;20053;-42
2021/04/28 03:06:43;;;;;;;0.15;0.15;;;13.40;54.30;;;;;;4143437;28;20050;-46
2021/04/28 03:09:05;;;;;;;0.00;0.00;;;13.40;54.40;;;;;;4142778;28;20439;-46
2021/04/28 03:11:27;;;;;;;0.00;0.00;;;13.40;54.30;;;;;;4158015;28;20041;-44
2021/04/28 03:13:56;;;;;;;0.00;0.00;;;13.40;54.40;;;;;;4142429;28;20519;-46
2021/04/28 03:16:18;;;;;;;0.10;0.10;;;13.40;54.50;;;;;;4157894;28;20059;-44
2021/04/28 03:18:40;;;;;;;0.00;0.00;;;13.30;54.50;;;;;;4142930;28;20046;-45
2021/04/28 03:21:02;;;;;;;0.20;0.20;;;13.40;54.50;;;;;;4157895;28;20515;-44
2021/04/28 03:23:25;;;;;;;0.00;0.00;;;13.40;54.50;;;;;;4143070;28;20420;-44
2021/04/28 03:25:47;;;;;;;0.00;0.00;;;13.40;54.60;;;;;;4143318;28;20073;-45
2021/04/28 03:28:08;;;;;;;0.30;0.30;;;13.40;54.60;;;;;;4157661;28;20056;-50
2021/04/28 03:30:31;;;;;;;0.00;0.00;;;13.40;54.60;;;;;;4142883;28;20072;-44
2021/04/28 03:32:53;;;;;;;0.00;0.00;;;13.30;54.50;;;;;;4141787;28;20046;-44
2021/04/28 03:35:38;;;;;;;0.00;0.00;;;13.30;54.60;;;;;;4111387;28;20050;-45
2021/04/28 03:38:17;;;;;;;0.00;0.00;;;13.30;54.60;;;;;;4141271;28;20069;-44
2021/04/28 03:40:39;;;;;;;0.00;0.00;;;13.30;54.70;;;;;;4127244;28;20077;-45
2021/04/28 03:42:59;;;;;;;6.13;1.15;;;13.30;54.70;;;;;;4157796;28;20045;-46
2021/04/28 03:45:21;;;;;;;0.00;0.00;;;13.30;54.80;;;;;;4142660;28;20058;-44
2021/04/28 03:47:43;;;;;;;0.00;0.00;;;13.30;54.80;;;;;;4142607;28;20081;-44
2021/04/28 03:50:05;;;;;;;0.00;0.00;;;13.30;54.80;;;;;;4157807;28;20061;-44
2021/04/28 03:52:32;;;;;;;0.00;0.00;;;13.30;54.90;;;;;;4157609;28;20566;-44
2021/04/28 03:55:13;;;;;;;0.10;0.10;;;13.30;55.00;;;;;;4156928;28;20444;-45
2021/04/28 03:57:34;;;;;;;0.00;0.00;;;13.30;55.00;;;;;;4157529;28;20049;-45
2021/04/28 03:59:55;;;;;;;0.00;0.00;;;13.30;54.90;;;;;;4142555;28;20574;-46
2021/04/28 04:02:17;;;;;;;;;;;13.30;55.00;;;;;;4156698;28;20138;-44
2021/04/28 04:05:05;;;;;;;0.00;0.00;;;13.20;55.00;;;;;;4155992;28;19982;-44
2021/04/28 04:07:40;;;;;;;0.00;0.00;;;13.20;55.10;;;;;;4140994;28;20420;-44
2021/04/28 04:10:06;;;;;;;0.00;0.00;;;13.20;55.10;;;;;;4156312;28;20056;-44
2021/04/28 04:12:27;;;;;;;0.00;0.00;;;13.20;55.10;;;;;;4148511;28;20498;-44
2021/04/28 04:14:51;;;;;;;0.00;0.00;;;13.20;55.20;;;;;;4156317;28;20077;-44
2021/04/28 04:17:13;;;;;;;2.10;1.65;;;13.20;55.30;;;;;;4125379;28;20050;-47
2021/04/28 04:19:37;;;;;;;0.00;0.00;;;13.20;55.20;;;;;;4123580;28;20104;-45
2021/04/28 04:22:07;;;;;;;2.50;1.88;;;13.20;55.30;;;;;;4124923;28;20054;-44
2021/04/28 04:24:57;;;;;;;0.00;0.00;;;13.20;55.40;;;;;;4133047;28;20045;-44
2021/04/28 04:27:19;;;;;;;0.00;0.00;;;13.10;55.30;;;;;;4141358;28;20069;-45
2021/04/28 04:29:59;;;;;;;0.00;0.00;;;13.10;55.40;;;;;;4126994;28;20577;-44
2021/04/28 04:32:23;;;;;;;0.00;0.00;;;13.10;55.40;;;;;;4144477;28;20056;-44
2021/04/28 04:35:09;;;;;;;0.10;0.10;;;13.10;55.30;;;;;;4144049;28;20131;-44
2021/04/28 04:37:50;;;;;;;4.45;0.65;;;13.10;55.40;;;;;;4144374;28;20068;-44
2021/04/28 04:40:24;;;;;;;0.00;0.00;;;13.10;55.50;;;;;;4147226;28;20392;-43
2021/04/28 04:43:06;;;;;;;0.00;0.00;;;13.10;55.30;;;;;;4158744;28;20052;-44
2021/04/28 04:45:43;;;;;;;0.00;0.00;;;13.10;56.10;;;;;;4142760;28;20073;-45
2021/04/28 04:48:05;;;;;;;0.00;0.00;;;13.10;55.50;;;;;;4142827;28;20120;-44
2021/04/28 04:50:26;;;;;;;0.30;0.30;;;13.10;55.50;;;;;;4144323;28;20149;-45
2021/04/28 04:52:47;;;;;;;0.00;0.00;;;13.10;56.20;;;;;;4143609;28;20583;-44
2021/04/28 04:55:11;;;;;;;0.00;0.00;;;13.10;55.40;;;;;;4144343;28;20503;-43
2021/04/28 04:57:31;;;;;;;0.28;0.28;;;13.00;55.50;;;;;;4144446;28;20511;-44
2021/04/28 04:59:53;;;;;;;0.00;0.00;;;13.10;55.50;;;;;;4160043;28;20488;-48
2021/04/28 05:02:14;;;;;;;0.00;0.00;;;13.10;55.40;;;;;;4159840;28;20042;-51
2021/04/28 05:04:35;;;;;;;0.00;0.00;;;13.00;55.40;;;;;;4157930;28;20502;-46
2021/04/28 05:06:56;;;;;;;0.43;0.43;;;13.10;56.00;;;;;;4159587;28;20136;-43
2021/04/28 05:09:17;;;;;;;;;;;13.10;55.90;;;;;;4160845;28;20053;-44
2021/04/28 05:11:38;;;;;;;0.00;0.00;;;13.20;55.60;;;;;;4160087;28;19948;-50
2021/04/28 05:14:02;;;;;;;0.00;0.00;;;13.20;55.40;;;;;;4160168;28;20053;-47
2021/04/28 05:16:23;;;;;;;0.00;0.00;;;13.20;55.20;;;;;;4147846;28;20140;-43
2021/04/28 05:18:44;;;;;;;0.00;0.00;;;13.20;55.00;;;;;;4144130;28;20048;-43
2021/04/28 05:21:05;;;;;;;0.00;0.00;;;13.20;54.80;;;;;;4159762;28;20496;-44
2021/04/28 05:23:26;;;;;;;;;;;13.30;54.90;;;;;;4158852;28;20558;-44
2021/04/28 05:26:06;;;;;;;0.00;0.00;;;13.30;54.80;;;;;;4160018;28;20276;-44
2021/04/28 05:28:28;;;;;;;0.00;0.00;;;13.30;54.70;;;;;;4143716;28;20072;-44
2021/04/28 05:30:49;;;;;;;0.08;0.08;;;13.30;54.40;;;;;;4159447;28;20056;-47
2021/04/28 05:33:10;;;;;;;0.10;0.10;;;13.20;54.30;;;;;;4159196;28;20065;-46
2021/04/28 05:35:31;;;;;;;0.00;0.00;;;13.20;54.30;;;;;;4143154;28;20042;-44
2021/04/28 05:37:52;;;;;;;0.20;0.20;;;13.30;54.30;;;;;;4159426;28;20159;-45
2021/04/28 05:40:14;;;;;;;0.00;0.00;;;13.30;54.20;;;;;;4159231;28;20049;-44
2021/04/28 05:42:37;;;;;;;0.00;0.00;;;13.30;54.00;;;;;;4159082;28;20519;-44
2021/04/28 05:44:58;;;;;;;0.00;0.00;;;13.30;54.00;;;;;;4159271;28;20049;-45
2021/04/28 05:47:20;;;;;;;1.25;1.25;;;13.30;53.90;;;;;;4158975;28;20045;-45
2021/04/28 05:49:41;;;;;;;0.55;0.43;;;13.30;53.80;;;;;;4144338;28;20049;-44
2021/04/28 05:52:02;;;;;;;0.05;0.05;;;13.30;53.70;;;;;;4159488;28;20057;-43
2021/04/28 05:54:23;;;;;;;0.00;0.00;;;13.30;54.30;;;;;;4159378;28;20116;-43
2021/04/28 05:56:45;;;;;;;0.00;0.00;;;13.40;53.50;;;;;;4143969;28;20054;-44
2021/04/28 05:59:08;;;;;;;0.57;0.57;;;13.40;53.30;;;;;;4159190;28;20057;-44
2021/04/28 06:01:30;;;;;;;1.15;1.08;;;13.50;53.10;;;;;;4158963;28;20415;-46
2021/04/28 06:04:16;;;;;;;0.00;0.00;;;13.50;52.90;;;;;;4156605;28;20098;-46
2021/04/28 06:06:41;;;;;;;0.00;0.00;;;13.50;52.80;;;;;;4143849;28;20038;-44
2021/04/28 06:09:02;;;;;;;0.00;0.00;;;13.50;52.70;;;;;;4156038;28;20481;-43
2021/04/28 06:11:23;;;;;;;0.00;0.00;;;13.50;52.70;;;;;;4159063;28;20084;-44
2021/04/28 06:13:44;;;;;;;0.00;0.00;;;13.50;53.20;;;;;;4157893;28;20053;-43
2021/04/28 06:16:05;;;;;;;;;;;13.60;54.10;;;;;;4159207;28;20057;-44
2021/04/28 06:18:27;;;;;;;0.00;0.00;;;13.70;53.90;;;;;;4158604;28;19925;-44
2021/04/28 06:20:48;;;;;;;0.15;0.15;;;13.70;56.20;;;;;;4158906;28;20787;-45
2021/04/28 06:23:09;;;;;;;0.00;0.00;;;13.70;58.20;;;;;;4158672;28;20496;-43
2021/04/28 06:25:30;;;;;;;0.00;0.00;;;13.70;57.20;;;;;;4158303;28;20057;-44
2021/04/28 06:27:51;;;;;;;1.33;1.23;;;13.70;56.20;;;;;;4142264;28;20508;-46
2021/04/28 06:30:13;;;;;;;0.00;0.00;;;13.70;56.30;;;;;;4145996;28;20053;-43
2021/04/28 06:32:34;;;;;;;0.43;0.43;;;13.70;54.60;;;;;;4158576;28;20463;-44
2021/04/28 06:34:56;;;;;;;0.05;0.05;;;13.70;54.20;;;;;;4158646;28;20045;-44
2021/04/28 06:37:17;;;;;;;0.57;0.57;;;13.70;53.90;;;;;;4158599;28;20056;-43
2021/04/28 06:39:38;;;;;;;0.13;0.13;;;13.80;53.60;;;;;;4158663;28;20435;-43
2021/04/28 06:41:59;;;;;;;0.00;0.00;;;13.80;52.90;;;;;;4158105;28;20041;-43
2021/04/28 06:44:21;;;;;;;0.10;0.10;;;13.80;52.90;;;;;;4158280;28;20053;-43
2021/04/28 06:46:42;;;;;;;0.05;0.05;;;13.80;53.40;;;;;;4158092;28;20431;-44
2021/04/28 06:49:04;;;;;;;0.00;0.00;;;13.80;52.00;;;;;;4158447;28;20049;-44
2021/04/28 06:51:25;;;;;;;0.03;0.03;;;13.90;51.60;;;;;;4158470;28;20053;-44
2021/04/28 06:53:48;;;;;;;0.00;0.00;;;14.00;51.30;;;;;;4158067;28;20404;-45
2021/04/28 06:56:10;;;;;;;1.15;1.08;;;14.00;51.30;;;;;;4158243;28;20080;-43
2021/04/28 06:58:32;;;;;;;0.00;0.00;;;14.00;50.90;;;;;;4158356;28;20091;-43
2021/04/28 07:00:53;;;;;;;0.20;0.20;;;14.10;50.50;;;;;;4158548;28;20745;-49
2021/04/28 07:03:14;;;;;;;0.00;0.00;;;14.10;50.40;;;;;;4172434;28;20110;-44
2021/04/28 07:05:35;;;;;;;0.00;0.00;;;14.10;50.30;;;;;;4167976;28;20068;-45
2021/04/28 07:07:57;;;;;;;1.17;1.10;;;14.10;50.20;;;;;;4158225;28;20049;-44
2021/04/28 07:10:18;;;;;;;0.00;0.00;;;14.10;50.10;;;;;;4157789;28;20080;-44
2021/04/28 07:12:39;;;;;;;0.00;0.00;;;14.10;50.10;;;;;;4157924;28;20054;-45
2021/04/28 07:15:00;;;;;;;0.00;0.00;;;14.10;50.00;;;;;;4158076;28;20056;-44
2021/04/28 07:17:21;;;;;;;0.55;0.55;;;14.20;49.90;;;;;;4158212;28;20049;-49
2021/04/28 07:19:42;;;;;;;0.00;0.00;;;14.20;49.70;;;;;;4157620;28;20145;-46
2021/04/28 07:22:03;;;;;;;0.70;0.63;;;14.20;49.60;;;;;;4157911;28;20056;-45
2021/04/28 07:24:25;;;;;;;;;;;14.20;49.50;;;;;;4158545;28;20049;-46
2021/04/28 07:26:46;;;;;;;;;;;14.20;49.40;;;;;;4158109;28;19921;-44
2021/04/28 07:29:07;;;;;;;0.00;0.00;;;14.30;49.00;;;;;;4157425;28;19964;-44
2021/04/28 07:31:30;;;;;;;0.00;0.00;;;14.30;49.30;;;;;;4157798;28;20052;-44
2021/04/28 07:33:51;;;;;;;0.00;0.00;;;14.30;49.60;;;;;;4157735;28;20055;-44
2021/04/28 07:36:12;;;;;;;0.30;0.30;;;14.30;49.40;;;;;;4157867;28;20492;-46
2021/04/28 07:38:34;;;;;;;0.30;0.30;;;14.30;49.20;;;;;;4157455;28;20717;-44
2021/04/28 07:40:57;;;;;;;0.00;0.00;;;14.40;49.30;;;;;;4172447;28;20052;-44
2021/04/28 07:43:17;;;;;;;0.00;0.00;;;14.40;49.50;;;;;;4172804;28;20144;-44
2021/04/28 07:45:38;;;;;;;0.00;0.00;;;14.40;49.60;;;;;;4157914;28;20053;-44
2021/04/28 07:47:59;;;;;;;0.00;0.00;;;14.40;49.50;;;;;;4157891;28;20041;-45
2021/04/28 07:50:20;;;;;;;0.20;0.20;;;14.40;50.10;;;;;;4157831;28;20054;-44
2021/04/28 07:52:48;;;;;;;0.00;0.00;;;14.40;50.10;;;;;;4157464;28;20130;-45
2021/04/28 07:55:11;;;;;;;0.00;0.00;;;14.40;50.20;;;;;;4157783;28;20077;-44
2021/04/28 07:57:33;;;;;;;0.00;0.00;;;14.50;50.20;;;;;;4141231;28;20045;-44
2021/04/28 07:59:54;;;;;;;0.10;0.10;;;14.50;49.90;;;;;;4141444;28;20069;-43
2021/04/28 08:02:15;;;;;;;;;;;14.50;49.90;;;;;;4141846;28;20057;-46
2021/04/28 08:04:38;;;;;;;0.00;0.00;;;14.50;49.60;;;;;;4142523;28;19957;-45
2021/04/28 08:06:59;;;;;;;0.52;0.52;;;14.50;49.50;;;;;;4144494;28;20679;-45
2021/04/28 08:09:20;;;;;;;0.20;0.20;;;14.60;49.80;;;;;;4144825;28;20074;-44
2021/04/28 08:11:41;;;;;;;0.10;0.10;;;14.50;49.90;;;;;;4144216;28;20072;-44
2021/04/28 08:14:03;;;;;;;0.00;0.00;;;14.60;50.10;;;;;;4144427;28;20042;-44
2021/04/28 08:16:26;;;;;;;0.93;0.30;;;14.60;50.00;;;;;;4144717;28;20057;-44
2021/04/28 08:18:48;;;;;;;0.10;0.10;;;14.60;49.80;;;;;;4149274;28;20099;-44
2021/04/28 08:21:09;;;;;;;0.00;0.00;;;14.70;49.80;;;;;;4160254;28;20130;-43
2021/04/28 08:23:30;;;;;;;0.00;0.00;;;14.70;49.90;;;;;;4160325;28;20504;-44
2021/04/28 08:25:51;;;;;;;0.00;0.00;;;14.70;49.70;;;;;;4160752;28;20136;-44
2021/04/28 08:28:12;;;;;;;0.10;0.10;;;14.70;49.50;;;;;;4160812;28;20778;-43
2021/04/28 08:30:34;;;;;;;0.10;0.10;;;14.80;49.30;;;;;;4160759;28;20053;-44
2021/04/28 08:33:06;;;;;;;1.17;1.13;;;14.80;49.30;;;;;;4159159;28;20044;-44
2021/04/28 08:35:28;;;;;;;1.55;1.45;;;14.80;49.30;;;;;;4160220;28;20053;-44
2021/04/28 08:37:49;;;;;;;;;;;14.90;49.40;;;;;;4160430;28;20507;-44
2021/04/28 08:40:11;;;;;;;0.00;0.00;;;14.90;49.20;;;;;;4144091;28;19925;-45
2021/04/28 08:42:33;;;;;;;0.20;0.20;;;14.90;49.20;;;;;;4150556;28;20384;-47
2021/04/28 08:44:55;;;;;;;0.40;0.40;;;14.90;49.20;;;;;;4160525;28;20456;-49
2021/04/28 08:47:18;;;;;;;0.38;0.38;;;14.90;49.20;;;;;;4160831;28;20061;-45
2021/04/28 08:49:39;;;;;;;0.13;0.13;;;15.00;49.30;;;;;;4160511;28;20136;-44
2021/04/28 08:52:02;;;;;;;0.43;0.43;;;15.00;49.40;;;;;;4176894;28;20067;-44
2021/04/28 08:54:39;;;;;;;5.47;2.60;;;15.00;49.20;;;;;;4173660;28;20042;-45
2021/04/28 08:57:00;;;;;;;0.20;0.17;;;15.10;49.00;;;;;;4160132;28;20041;-44
2021/04/28 08:59:23;;;;;;;1.20;0.82;;;15.10;49.10;;;;;;4160264;28;20049;-44
2021/04/28 09:01:45;;;;;;;;;;;15.10;49.10;;;;;;4145300;28;20049;-44
2021/04/28 09:04:14;;;;;;;0.10;0.10;;;15.10;49.00;;;;;;4160090;28;19933;-46
2021/04/28 09:06:37;;;;;;;0.47;0.47;;;15.20;49.00;;;;;;4163376;28;20049;-44
2021/04/28 09:09:04;;;;;;;0.00;0.00;;;15.20;48.80;;;;;;4176528;28;20407;-44
2021/04/28 09:11:36;;;;;;;0.20;0.20;;;15.20;48.90;;;;;;4165365;28;20135;-44
2021/04/28 09:14:05;;;;;;;0.25;0.25;;;15.30;49.10;;;;;;4158385;28;20054;-45
2021/04/28 09:16:26;;;;;;;0.10;0.10;;;15.30;49.10;;;;;;4159728;28;20403;-44
2021/04/28 09:18:47;;;;;;;0.30;0.30;;;15.30;49.10;;;;;;4144090;28;20037;-44
2021/04/28 09:21:51;;;;;;;0.38;0.38;;;15.30;48.90;;;;;;4144650;28;20509;-45
2021/04/28 09:24:33;;;;;;;0.13;0.13;;;15.40;48.70;;;;;;4160799;28;20063;-45
2021/04/28 09:27:27;;;;;;;0.65;0.65;;;15.40;48.60;;;;;;4176407;28;20051;-44
2021/04/28 09:30:27;;;;;;;2.42;2.22;;;15.50;48.40;;;;;;4148528;28;20057;-45
2021/04/28 09:32:48;;;;;;;1.65;0.80;;;15.50;48.40;;;;;;4143643;28;20050;-50
2021/04/28 09:35:11;;;;;;;;;;;15.60;48.20;;;;;;4144163;28;20443;-49
2021/04/28 09:37:49;;;;;;;0.20;0.20;;;15.60;48.10;;;;;;4159900;28;19925;-44
2021/04/28 09:40:11;;;;;;;0.10;0.10;;;15.60;48.10;;;;;;4159380;28;20137;-44
2021/04/28 09:42:50;;;;;;;1.02;0.68;;;15.60;48.60;;;;;;4143388;28;20057;-44
2021/04/28 09:45:12;;;;;;;0.47;0.45;;;15.70;48.50;;;;;;4143549;28;20042;-45
2021/04/28 09:47:33;;;;;;;0.00;0.00;;;15.70;48.20;;;;;;4159202;28;20041;-44
2021/04/28 09:49:56;;;;;;;0.35;0.35;;;15.80;48.10;;;;;;4159808;28;20144;-44
2021/04/28 09:52:20;;;;;;;0.28;0.28;;;15.80;48.00;;;;;;4143327;28;20054;-45
2021/04/28 09:54:44;;;;;;;0.13;0.13;;;15.80;47.60;;;;;;4149804;28;20511;-44
2021/04/28 09:57:05;;;;;;;1.73;0.98;;;15.80;47.40;;;;;;4159067;28;20048;-46
2021/04/28 09:59:44;;;;;;;0.75;0.73;;;15.80;47.20;;;;;;4143051;28;20042;-45
2021/04/28 10:02:05;;;;;;;0.00;0.00;;;15.80;47.30;;;;;;4157780;28;20061;-44
2021/04/28 10:04:27;;;;;;;0.05;0.05;;;15.90;46.80;;;;;;4141906;28;20050;-44
2021/04/28 10:06:50;;;;;;;0.00;0.00;;;15.90;46.80;;;;;;4143068;28;20429;-45
2021/04/28 10:09:28;;;;;;;0.20;0.20;;;15.90;47.10;;;;;;4159094;28;20554;-45
2021/04/28 10:11:50;;;;;;;0.00;0.00;;;15.90;47.20;;;;;;4158795;28;20064;-47
2021/04/28 10:14:10;;;;;;;0.80;0.80;;;15.90;47.20;;;;;;4126831;28;20057;-46
2021/04/28 10:16:31;;;;;;;2.85;1.30;;;16.00;47.30;;;;;;4154493;28;20045;-44
2021/04/28 10:18:53;;;;;;;1.30;1.27;;;16.00;47.30;;;;;;4159035;28;20481;-45
2021/04/28 10:21:16;;;;;;;1.55;0.80;;;16.00;47.00;;;;;;4158808;28;20045;-50
2021/04/28 10:23:37;;;;;;;0.35;0.22;;;16.10;47.00;;;;;;4158522;28;20459;-46
2021/04/28 10:25:59;;;;;;;1.65;1.05;;;16.00;47.40;;;;;;4158523;28;20047;-46
2021/04/28 10:28:22;;;;;;;0.47;0.47;;;16.10;46.60;;;;;;4144196;28;20057;-46
2021/04/28 10:30:45;;;;;;;0.03;0.03;;;16.10;46.60;;;;;;4147145;28;20487;-46
2021/04/28 10:33:12;;;;;;;3.50;0.60;;;16.10;46.70;;;;;;4158834;28;20049;-44
2021/04/28 10:35:34;;;;;;;0.25;0.22;;;16.10;46.50;;;;;;4148057;28;20128;-45
2021/04/28 10:37:57;;;;;;;0.73;0.73;;;16.10;46.30;;;;;;4158967;28;20504;-44
2021/04/28 10:40:20;;;;;;;0.10;0.10;;;16.20;46.20;;;;;;4158732;28;20132;-44
2021/04/28 10:42:42;;;;;;;1.15;1.05;;;16.20;46.00;;;;;;4159015;28;20057;-44
2021/04/28 10:45:06;;;;;;;0.65;0.40;;;16.20;45.60;;;;;;4159207;28;20168;-45
2021/04/28 10:47:30;;;;;;;0.00;0.00;;;16.30;46.00;;;;;;4158688;28;20084;-43
2021/04/28 10:50:25;;;;;;;0.40;0.30;;;16.20;46.40;;;;;;4158486;28;20160;-45
2021/04/28 10:52:53;;;;;;;0.32;0.32;;;16.20;47.00;;;;;;4091719;28;20059;-44
2021/04/28 10:55:38;;;;;;;0.00;0.00;;;16.20;46.90;;;;;;4090240;28;20055;-46
2021/04/28 10:58:00;;;;;;;0.95;0.82;;;16.30;47.10;;;;;;4121306;28;20080;-44
2021/04/28 11:00:26;;;;;;;;;;;16.30;46.50;;;;;;4158633;28;20518;-44
2021/04/28 11:02:48;;;;;;;0.05;0.05;;;16.40;46.30;;;;;;4157861;28;19924;-46
2021/04/28 11:05:20;;;;;;;0.10;0.10;;;16.30;46.40;;;;;;4157528;28;20099;-44
2021/04/28 11:07:42;;;;;;;;;;;16.40;46.00;;;;;;4148989;28;20045;-44
2021/04/28 11:10:24;;;;;;;0.45;0.45;;;16.40;45.40;;;;;;4157831;28;19986;-45
2021/04/28 11:13:05;;;;;;;0.20;0.20;;;16.40;45.60;;;;;;4157703;28;20053;-44
2021/04/28 11:15:45;;;;;;;0.25;0.25;;;16.40;45.50;;;;;;4156767;28;20095;-47
2021/04/28 11:18:27;;;;;;;0.00;0.00;;;16.40;45.30;;;;;;4157745;28;20076;-44
2021/04/28 11:21:26;;;;;;;0.45;0.45;;;16.40;44.60;;;;;;4158238;28;20478;-48
2021/04/28 11:24:06;;;;;;;0.25;0.25;;;16.50;45.30;;;;;;4157923;28;20056;-48
2021/04/28 11:26:29;;;;;;;0.50;0.50;;;16.50;45.40;;;;;;4141847;28;20058;-44
2021/04/28 11:28:50;;;;;;;0.10;0.10;;;16.50;45.10;;;;;;4126136;28;20046;-44
2021/04/28 11:31:22;;;;;;;0.10;0.10;;;16.50;44.20;;;;;;4125760;28;20066;-44
2021/04/28 11:33:43;;;;;;;0.00;0.00;;;16.50;44.30;;;;;;4125065;28;20054;-44
2021/04/28 11:36:12;;;;;;;0.88;0.88;;;16.50;44.10;;;;;;4125543;28;20057;-44
2021/04/28 11:38:38;;;;;;;0.10;0.10;;;16.50;44.30;;;;;;4125232;28;20136;-44
2021/04/28 11:41:01;;;;;;;1.38;1.13;;;16.60;44.30;;;;;;4141557;28;20061;-45
2021/04/28 11:43:24;;;;;;;0.03;0.03;;;16.50;43.90;;;;;;4141269;28;20081;-45
2021/04/28 11:45:46;;;;;;;0.57;0.57;;;16.60;43.60;;;;;;4141737;28;20064;-49
2021/04/28 11:48:16;;;;;;;0.75;0.75;;;16.60;43.50;;;;;;4141804;28;20061;-47
2021/04/28 11:50:38;;;;;;;0.98;0.98;;;16.60;44.20;;;;;;4141650;28;20057;-45
2021/04/28 11:53:03;;;;;;;1.58;1.48;;;16.60;42.60;;;;;;4157978;28;20131;-48
2021/04/28 11:55:38;;;;;;;0.17;0.17;;;16.60;42.50;;;;;;4140365;28;20058;-45
2021/04/28 11:58:17;;;;;;;0.30;0.30;;;16.60;43.10;;;;;;4141433;28;20053;-45
2021/04/28 12:00:38;;;;;;;0.50;0.50;;;16.70;42.40;;;;;;4141550;28;20049;-45
2021/04/28 12:03:01;;;;;;;0.60;0.60;;;16.70;43.20;;;;;;4157920;28;20076;-45
2021/04/28 12:05:24;;;;;;;0.35;0.35;;;16.60;42.50;;;;;;4141449;28;20057;-45
2021/04/28 12:07:46;;;;;;;0.60;0.60;;;16.60;42.60;;;;;;4157378;28;20049;-47
2021/04/28 12:10:15;;;;;;;0.30;0.30;;;16.70;42.50;;;;;;4157560;28;20492;-48
2021/04/28 12:12:36;;;;;;;0.40;0.40;;;16.70;43.10;;;;;;4157221;28;20049;-44
2021/04/28 12:15:13;;;;;;;0.00;0.00;;;16.70;42.20;;;;;;4157494;28;20049;-45
2021/04/28 12:17:36;;;;;;;0.45;0.45;;;16.70;42.20;;;;;;4157062;28;20053;-44
2021/04/28 12:19:57;;;;;;;0.13;0.13;;;16.80;42.30;;;;;;4157853;28;20111;-44
2021/04/28 12:22:19;;;;;;;1.30;1.00;;;16.80;42.40;;;;;;4157786;28;20069;-44
2021/04/28 12:24:42;;;;;;;1.55;1.55;;;16.80;42.50;;;;;;4157796;28;20069;-44
2021/04/28 12:27:19;;;;;;;0.15;0.15;;;16.90;42.40;;;;;;4157754;28;20041;-44
2021/04/28 12:29:42;;;;;;;2.17;1.98;;;16.90;42.10;;;;;;4157488;28;20056;-45
2021/04/28 12:32:03;;;;;;;0.43;0.43;;;16.90;42.10;;;;;;4156286;28;20135;-44
2021/04/28 12:34:24;;;;;;;0.57;0.57;;;16.90;42.20;;;;;;4157615;28;20437;-45
2021/04/28 12:36:47;;;;;;;0.10;0.10;;;16.90;42.10;;;;;;4157812;28;20045;-46
2021/04/28 12:39:08;;;;;;;0.20;0.20;;;16.90;42.00;;;;;;4157896;28;20057;-44
2021/04/28 12:41:29;;;;;;;0.10;0.10;;;16.90;42.00;;;;;;4157791;28;20134;-44